Terminal Aerodrome Forecast
Issued by NWS Sterling, VA

Home | Current Version | Previous Version | Text Only | Print | Product List | Glossary On
Versions: 1 2 3 4 5 6 7 8 9 10 11 12 13 14 15 16 17 18 19 20 21 22
045
FTUS41 KLWX 272333
TAFIAD
TAF
KIAD 272333Z 2800/2906 VRB04KT P6SM -SHRA VCTS BKN050CB
      TEMPO 2800/2801 5SM -TSRA BR BKN040CB
     FM281000 VRB03KT P6SM BKN070
     FM281200 VRB04KT 5SM -SHRA OVC050
     FM281800 VRB04KT 3SM SHRA OVC030
     FM282100 VRB04KT 2SM SHRA OVC030
     FM290400 VRB04KT 4SM SHRA OVC015=

USA.gov is the U.S. government's official web portal to all federal, state and local government web resources and services.